Aberdeen Regional Airport
KABR : now visible

Airfield :











YOU CAN JOIN US ON...

 
LOGIN :

Register | Disclaimer

   EN    FR    IT 

 









Legend :    VFR   Marginal VFR   IFR   Intensive IFR   Very Intensive IFR
Visi :
Ceiling :
>= 8 km
>= 3000ft
5 to 8 km
1000 to 3000 ft
1500m to 5 km
500 to 1000 ft
800 to 1500m
200 to 500 ft
< 800m
< 200 ft
Symbols :   Thunderstorms  Fog  Heavy snow  Heavy precipitations  Wind > 20 kt






- Airport Elevation : 1302 ft
- IATA code : ABR


KABR - Aberdeen Regional

CURRENT METAR :
  • 181053Z AUTO 31023G32KT 1 1/4SM -SN OVC019 M15/M18 A3005 RMK AO2 PK WND 33042/1010 SLP200 P0000 T11501178 $

EXPIRED METARs :
  • 180953Z AUTO 32025G37KT 1/2SM -SN FZFG VV012 M16/M18 A3003 RMK AO2 PK WND 31046/0912 SLP194 P0002 T11561178 $
  • 180924Z AUTO 32024G40KT 1/2SM -SN FZFG VV011 M16/M18 A3003 RMK AO2 PK WND 31046/0912 P0000 T11561178 $
  • 180914Z AUTO 32028G46KT 1/4SM SN FZFG VV010 M16/M18 A3002 RMK AO2 PK WND 31046/0912 P0000 T11561178 $
  • 180902Z AUTO 32032G45KT 1/4SM +SN VV010 M16/M18 A3002 RMK AO2 PK WND 32045/0854 P0000 T11561183 $
  • 180853Z AUTO 32030G44KT 1/2SM SN FZFG VV013 M16/M18 A3001 RMK AO2 PK WND 32044/0834 SLP188 P0000 60000 T11561178 53038 $
  • 180826Z AUTO 32036G43KT 1/2SM SN VV018 M16/M18 A2999 RMK AO2 PK WND 32043/0754 P0000 T11561183 $
  • 180816Z AUTO 32025G37KT 3/4SM -SN BR VV014 M16/M18 A2998 RMK AO2 PK WND 32043/0754 P0000 T11561178 $

TAF KABR
Valid from the 18 at 06:00 until the 19 at 06:00 UTC


180525Z 1806/1906 32029G45KT 1/4SM -SN BLSN VCSH OVC009
TEMPO 1806/1809 1SM BLSN OVC015
FM180900 31030G45KT 1/2SM BLSN OVC015
FM181100 31030G42KT 1SM BLSN OVC015
FM182300 31020G28KT 2SM BLSN SCT025
FM190200 29012KT P6SM FEW050



MET'MAP, your aeronautical weather chart ! - Copyright ORBIFLY December 2007 - Disclaimer

ORBIFLY MET'MAP TEAM :

Programming & Development : Alexandra Zaïnal
Concept & original design : Baudouin d'Aumeries
Assistance for programming : Marc-Olivier Méhu
Technical & hardware support : Manuel Goepfert

Contact : metmap@orbifly.com




SOURCES & CREDITS :

   NOAA       Earth
Advisory